createdAt,value
2022-09-24T00:00:02.674Z,71
2022-09-24T00:20:03.183Z,72
2022-09-24T00:40:02.606Z,71
2022-09-24T01:00:02.999Z,71
2022-09-24T01:20:02.765Z,71
2022-09-24T01:40:03.093Z,72
2022-09-24T02:00:02.581Z,72
2022-09-24T02:20:03.119Z,72
2022-09-24T02:40:02.509Z,74
2022-09-24T03:00:02.983Z,74
2022-09-24T03:20:03.327Z,74
2022-09-24T03:40:02.823Z,74
2022-09-24T04:00:03.375Z,74
2022-09-24T04:20:02.841Z,74
2022-09-24T04:40:03.434Z,75
2022-09-24T05:00:02.897Z,75
2022-09-24T05:20:03.316Z,76
2022-09-24T05:40:02.901Z,76
2022-09-24T06:00:02.323Z,76
2022-09-24T06:20:03.102Z,75
2022-09-24T06:40:02.633Z,74
2022-09-24T07:00:02.956Z,73
2022-09-24T07:20:02.422Z,72
2022-09-24T07:40:02.829Z,71
2022-09-24T08:00:03.326Z,70
2022-09-24T08:20:03.165Z,69
2022-09-24T08:40:02.644Z,68
2022-09-24T09:00:02.923Z,67
2022-09-24T09:20:03.147Z,66
2022-09-24T09:40:02.690Z,64
2022-09-24T10:00:03.278Z,62
2022-09-24T10:20:03.153Z,61
2022-09-24T10:40:02.726Z,61
2022-09-24T11:00:03.256Z,61
2022-09-24T11:20:02.798Z,60
2022-09-24T11:40:03.128Z,59
2022-09-24T12:00:02.763Z,58
2022-09-24T12:20:02.343Z,57
2022-09-24T12:40:02.754Z,57
2022-09-24T13:00:03.209Z,58
2022-09-24T13:20:02.609Z,58
2022-09-24T13:40:02.927Z,59
2022-09-24T14:00:02.242Z,60
2022-09-24T14:20:03.044Z,60
2022-09-24T14:40:03.110Z,60
2022-09-24T15:00:07.419Z,61
2022-09-24T15:20:03.091Z,61
2022-09-24T15:40:02.670Z,63
2022-09-24T16:00:03.309Z,65
2022-09-24T16:20:02.888Z,67
2022-09-24T16:40:02.473Z,68
2022-09-24T17:00:03.725Z,69
2022-09-24T17:20:03.052Z,69
2022-09-24T17:40:02.705Z,70
2022-09-24T18:00:03.145Z,71
2022-09-24T18:20:02.624Z,71
2022-09-24T18:40:08.363Z,72
2022-09-24T19:00:03.553Z,72
2022-09-24T19:20:03.264Z,71
2022-09-24T19:40:02.753Z,71
2022-09-24T20:00:10.058Z,71
2022-09-24T20:20:02.429Z,71
2022-09-24T20:40:04.042Z,72
2022-09-24T21:00:02.410Z,72
2022-09-24T21:20:03.233Z,72
2022-09-24T21:40:03.031Z,71
2022-09-24T22:00:02.478Z,71
2022-09-24T22:20:03.083Z,70
2022-09-24T22:40:02.685Z,70
2022-09-24T23:00:03.158Z,70
2022-09-24T23:20:02.944Z,70
2022-09-24T23:40:03.289Z,70
